createdAt,value
2023-05-10T00:02:07.032Z,10.42
2023-05-10T00:04:36.613Z,10.44
2023-05-10T00:07:04.709Z,10.44
2023-05-10T00:09:33.145Z,10.47
2023-05-10T00:12:01.476Z,10.42
2023-05-10T00:14:29.967Z,10.44
2023-05-10T00:16:58.192Z,10.45
2023-05-10T00:19:26.362Z,10.47
2023-05-10T00:21:55.967Z,10.43
2023-05-10T00:24:24.289Z,10.45
2023-05-10T00:26:52.318Z,10.44
2023-05-10T00:29:20.775Z,10.46
2023-05-10T00:31:49.507Z,10.44
2023-05-10T00:34:17.592Z,10.47
2023-05-10T00:36:46.990Z,10.41
2023-05-10T00:39:16.603Z,10.42
2023-05-10T00:41:44.971Z,10.37
2023-05-10T00:44:13.130Z,10.36
2023-05-10T00:46:41.222Z,10.31
2023-05-10T00:49:09.431Z,10.38
2023-05-10T00:51:37.882Z,10.40
2023-05-10T00:54:07.935Z,10.40
2023-05-10T00:56:37.838Z,10.44
2023-05-10T00:59:05.893Z,10.44
2023-05-10T01:01:34.432Z,10.47
2023-05-10T01:04:03.135Z,10.49
2023-05-10T01:06:31.533Z,10.49
2023-05-10T01:08:59.736Z,10.45
2023-05-10T01:11:27.900Z,10.46
2023-05-10T01:13:59.957Z,10.38
2023-05-10T01:16:28.718Z,10.44
2023-05-10T01:18:57.460Z,10.41
2023-05-10T01:21:30.428Z,10.31
2023-05-10T01:24:11.856Z,10.34
2023-05-10T01:26:57.952Z,10.32
2023-05-10T01:29:41.415Z,10.31
2023-05-10T01:32:18.889Z,10.35
2023-05-10T01:34:50.424Z,10.30
2023-05-10T01:37:22.948Z,10.35
2023-05-10T01:39:56.791Z,10.34
2023-05-10T01:42:28.276Z,10.29
2023-05-10T01:45:00.661Z,10.34
2023-05-10T01:47:33.759Z,10.32
2023-05-10T01:50:04.302Z,10.35
2023-05-10T01:52:34.247Z,10.28
2023-05-10T01:55:04.330Z,10.30
2023-05-10T01:57:35.388Z,10.25
2023-05-10T02:00:03.990Z,10.24
2023-05-10T02:02:47.226Z,10.21
2023-05-10T02:05:16.825Z,10.26
2023-05-10T02:07:45.789Z,10.22
2023-05-10T02:10:14.212Z,10.23
2023-05-10T02:12:43.841Z,10.25
2023-05-10T02:15:13.975Z,10.26
2023-05-10T02:17:44.517Z,10.32
2023-05-10T02:20:15.502Z,10.29
2023-05-10T02:22:45.410Z,10.29
2023-05-10T02:25:16.743Z,10.29
2023-05-10T02:27:45.976Z,10.36
2023-05-10T02:30:14.727Z,10.30
2023-05-10T02:32:43.324Z,10.32
2023-05-10T02:35:12.076Z,10.21
2023-05-10T02:37:42.102Z,10.31
2023-05-10T02:40:10.929Z,10.26
2023-05-10T02:42:39.968Z,10.25
2023-05-10T02:45:10.123Z,10.24
2023-05-10T02:47:38.512Z,10.21
2023-05-10T02:50:07.228Z,10.27
2023-05-10T02:52:41.428Z,10.25
2023-05-10T02:55:13.963Z,10.21
2023-05-10T02:57:43.543Z,10.24
2023-05-10T03:00:12.214Z,10.16
2023-05-10T03:02:40.782Z,10.22
2023-05-10T03:05:09.694Z,10.25
2023-05-10T03:07:38.434Z,10.19
2023-05-10T03:10:07.340Z,10.21
2023-05-10T03:12:49.284Z,10.18
2023-05-10T03:15:21.860Z,10.24
2023-05-10T03:17:52.206Z,10.17
2023-05-10T03:20:23.596Z,10.19
2023-05-10T03:22:54.306Z,10.19
2023-05-10T03:25:23.446Z,10.17
2023-05-10T03:27:54.469Z,10.13
2023-05-10T03:30:23.642Z,10.15
2023-05-10T03:32:51.825Z,10.21
2023-05-10T03:35:20.163Z,10.24
2023-05-10T03:37:48.573Z,10.15
2023-05-10T03:40:17.369Z,10.25
2023-05-10T03:42:46.242Z,10.24
2023-05-10T03:45:16.258Z,10.19
2023-05-10T03:47:44.672Z,10.26
2023-05-10T03:50:12.704Z,10.18
2023-05-10T03:52:41.258Z,10.21
2023-05-10T03:55:09.812Z,10.27
2023-05-10T03:57:38.207Z,10.25
2023-05-10T04:00:08.211Z,10.20
2023-05-10T04:02:47.190Z,10.20
2023-05-10T04:05:20.796Z,10.22
2023-05-10T04:07:50.399Z,10.28
2023-05-10T04:10:18.922Z,10.27
2023-05-10T04:12:47.301Z,10.29
2023-05-10T04:15:15.487Z,10.27
2023-05-10T04:17:43.613Z,10.29
2023-05-10T04:20:14.419Z,10.27
2023-05-10T04:22:43.177Z,10.32
2023-05-10T04:25:11.717Z,10.27
2023-05-10T04:27:39.672Z,10.19
2023-05-10T04:30:08.455Z,10.23
2023-05-10T04:32:38.602Z,10.27
2023-05-10T04:35:07.594Z,10.18
2023-05-10T04:37:37.621Z,10.26
2023-05-10T04:40:06.432Z,10.19
2023-05-10T04:42:34.563Z,10.20
2023-05-10T04:45:02.777Z,10.14
2023-05-10T04:47:31.184Z,10.19
2023-05-10T04:49:59.575Z,10.08
2023-05-10T04:52:27.761Z,10.19
2023-05-10T04:54:57.323Z,10.15
2023-05-10T04:57:25.837Z,10.20
2023-05-10T04:59:53.901Z,10.18
2023-05-10T05:02:22.135Z,10.26
2023-05-10T05:04:50.159Z,10.22
2023-05-10T05:07:18.268Z,10.15
2023-05-10T05:09:46.429Z,10.27
2023-05-10T05:12:16.001Z,10.28
2023-05-10T05:14:44.206Z,10.27
2023-05-10T05:17:12.330Z,10.31
2023-05-10T05:19:40.527Z,10.19
2023-05-10T05:22:08.847Z,10.20
2023-05-10T05:24:40.340Z,10.15
2023-05-10T05:27:08.680Z,10.25
2023-05-10T05:29:38.440Z,10.11
2023-05-10T05:32:09.605Z,10.23
2023-05-10T05:34:38.020Z,10.17
2023-05-10T05:37:06.097Z,10.18
2023-05-10T05:39:34.317Z,10.16
2023-05-10T05:42:02.343Z,10.20
2023-05-10T05:44:30.434Z,10.27
2023-05-10T05:47:00.301Z,10.23
2023-05-10T05:49:28.506Z,10.21
2023-05-10T05:51:56.775Z,10.28
2023-05-10T05:54:25.199Z,10.18
2023-05-10T05:56:53.435Z,10.21
2023-05-10T05:59:21.732Z,10.24
2023-05-10T06:01:50.125Z,10.26
2023-05-10T06:04:19.669Z,10.19
2023-05-10T06:06:47.860Z,10.21
2023-05-10T06:09:16.025Z,10.20
2023-05-10T06:11:44.267Z,10.19
2023-05-10T06:14:12.395Z,10.13
2023-05-10T06:16:40.784Z,10.15
2023-05-10T06:19:09.184Z,10.22
2023-05-10T06:21:38.750Z,10.20
2023-05-10T06:24:07.862Z,10.20
2023-05-10T06:26:35.980Z,10.23
2023-05-10T06:29:04.385Z,10.30
2023-05-10T06:31:32.997Z,10.41
2023-05-10T06:34:01.037Z,10.37
2023-05-10T06:36:29.335Z,10.33
2023-05-10T06:38:58.896Z,10.52
2023-05-10T06:41:27.053Z,10.53
2023-05-10T06:43:55.113Z,10.63
2023-05-10T06:46:23.248Z,10.50
2023-05-10T06:48:51.300Z,10.50
2023-05-10T06:51:19.498Z,10.57
2023-05-10T06:53:47.637Z,10.67
2023-05-10T06:56:17.157Z,10.64
2023-05-10T06:58:45.327Z,10.78
2023-05-10T07:01:13.513Z,10.78
2023-05-10T07:03:42.291Z,10.92
2023-05-10T07:06:21.624Z,11.05
2023-05-10T07:08:58.165Z,11.21
2023-05-10T07:11:27.865Z,11.29
2023-05-10T07:13:56.509Z,11.33
2023-05-10T07:16:24.642Z,11.28
2023-05-10T07:18:54.104Z,11.28
2023-05-10T07:21:25.096Z,11.22
2023-05-10T07:23:54.154Z,11.36
2023-05-10T07:26:22.244Z,11.28
2023-05-10T07:28:52.494Z,11.32
2023-05-10T07:31:20.708Z,11.19
2023-05-10T07:33:48.753Z,11.23
2023-05-10T07:36:17.102Z,11.27
2023-05-10T07:38:45.234Z,11.33
2023-05-10T07:41:13.614Z,11.20
2023-05-10T07:43:42.036Z,11.21
2023-05-10T07:46:12.077Z,11.17
2023-05-10T07:48:40.194Z,11.11
2023-05-10T07:51:10.505Z,11.22
2023-05-10T07:53:38.852Z,11.20
2023-05-10T07:56:22.605Z,11.14
2023-05-10T07:58:50.820Z,11.14
2023-05-10T08:01:20.326Z,11.29
2023-05-10T08:03:48.657Z,11.33
2023-05-10T08:06:16.952Z,11.28
2023-05-10T08:08:46.659Z,11.38
2023-05-10T08:11:15.048Z,11.29
2023-05-10T08:13:43.154Z,11.49
2023-05-10T08:16:11.266Z,11.39
2023-05-10T08:18:40.842Z,11.49
2023-05-10T08:21:08.878Z,11.64
2023-05-10T08:23:36.921Z,11.63
2023-05-10T08:26:05.064Z,11.68
2023-05-10T08:28:33.155Z,11.70
2023-05-10T08:31:01.222Z,11.84
2023-05-10T08:33:29.365Z,11.87
2023-05-10T08:35:59.039Z,11.92
2023-05-10T08:38:27.101Z,11.92
2023-05-10T08:40:57.689Z,11.96
2023-05-10T08:43:28.052Z,12.02
2023-05-10T08:45:56.519Z,12.16
2023-05-10T08:48:26.295Z,12.12
2023-05-10T08:50:55.931Z,12.25
2023-05-10T08:53:28.325Z,12.24
2023-05-10T08:55:57.477Z,12.36
2023-05-10T08:58:25.480Z,12.33
2023-05-10T09:00:53.899Z,12.52
2023-05-10T09:03:22.098Z,12.55
2023-05-10T09:05:50.616Z,12.69
2023-05-10T09:08:19.428Z,12.60
2023-05-10T09:10:50.504Z,12.55
2023-05-10T09:13:19.339Z,12.78
2023-05-10T09:15:48.080Z,12.88
2023-05-10T09:18:16.399Z,13.02
2023-05-10T09:20:44.933Z,13.07
2023-05-10T09:23:12.979Z,13.27
2023-05-10T09:25:43.548Z,13.44
2023-05-10T09:28:13.486Z,13.53
2023-05-10T09:30:41.699Z,13.53
2023-05-10T09:33:10.026Z,13.48
2023-05-10T09:35:41.192Z,13.53
2023-05-10T09:38:09.276Z,13.30
2023-05-10T09:40:38.026Z,13.31
2023-05-10T09:43:08.227Z,13.42
2023-05-10T09:45:39.193Z,13.45
2023-05-10T09:48:08.194Z,13.63
2023-05-10T09:50:36.295Z,13.85
2023-05-10T09:53:05.575Z,13.88
2023-05-10T09:55:41.487Z,14.20
2023-05-10T09:58:11.945Z,13.99
2023-05-10T10:00:41.996Z,14.09
2023-05-10T10:03:14.664Z,14.07
2023-05-10T10:05:43.697Z,14.07
2023-05-10T10:08:12.302Z,14.28
2023-05-10T10:10:41.497Z,14.77
2023-05-10T10:13:10.204Z,15.29
2023-05-10T10:15:38.376Z,15.46
2023-05-10T10:18:08.036Z,15.42
2023-05-10T10:20:39.449Z,14.92
2023-05-10T10:23:07.503Z,14.86
2023-05-10T10:25:35.594Z,14.43
2023-05-10T10:28:11.151Z,14.08
2023-05-10T10:30:42.387Z,13.97
2023-05-10T10:33:28.703Z,14.15
2023-05-10T10:35:57.973Z,14.26
2023-05-10T10:38:26.217Z,14.39
2023-05-10T10:41:04.680Z,14.41
2023-05-10T10:43:32.907Z,14.24
2023-05-10T10:46:12.522Z,14.54
2023-05-10T10:48:42.369Z,14.54
2023-05-10T10:51:12.699Z,14.56
2023-05-10T10:53:42.114Z,14.59
2023-05-10T10:56:11.499Z,14.53
2023-05-10T10:58:40.601Z,14.63
2023-05-10T11:01:12.842Z,14.65
2023-05-10T11:03:42.554Z,14.60
2023-05-10T11:06:11.072Z,14.39
2023-05-10T11:08:45.037Z,14.47
2023-05-10T11:16:12.208Z,14.38
2023-05-10T11:18:40.569Z,14.44
2023-05-10T11:21:11.700Z,14.55
2023-05-10T11:23:52.795Z,14.62
2023-05-10T11:26:24.360Z,14.81
2023-05-10T11:28:52.693Z,15.11
2023-05-10T11:31:21.485Z,15.29
2023-05-10T11:33:51.124Z,15.38
2023-05-10T11:36:21.976Z,15.29
2023-05-10T11:38:50.558Z,15.63
2023-05-10T11:41:19.653Z,15.47
2023-05-10T11:43:50.013Z,15.61
2023-05-10T11:46:18.562Z,15.61
2023-05-10T11:48:46.640Z,16.16
2023-05-10T11:51:15.005Z,16.38
2023-05-10T11:53:44.461Z,16.93
2023-05-10T11:56:12.638Z,17.36
2023-05-10T11:58:41.250Z,17.33
2023-05-10T12:01:10.155Z,17.27
2023-05-10T12:03:39.320Z,17.00
2023-05-10T12:06:09.439Z,16.55
2023-05-10T12:08:37.962Z,16.46
2023-05-10T12:11:08.868Z,16.06
2023-05-10T12:13:40.292Z,16.48
2023-05-10T12:16:16.356Z,16.55
2023-05-10T12:18:44.963Z,16.61
2023-05-10T12:21:13.828Z,16.80
2023-05-10T12:23:42.106Z,16.70
2023-05-10T12:26:12.611Z,16.66
2023-05-10T12:28:40.953Z,16.82
2023-05-10T12:31:09.316Z,16.55
2023-05-10T12:33:37.921Z,16.74
2023-05-10T12:36:06.164Z,16.75
2023-05-10T12:38:35.415Z,17.13
2023-05-10T12:41:04.561Z,17.14
2023-05-10T12:43:34.867Z,16.87
2023-05-10T12:46:06.678Z,16.76
2023-05-10T12:48:36.066Z,16.67
2023-05-10T12:51:04.668Z,16.60
2023-05-10T12:53:33.202Z,16.60
2023-05-10T12:56:01.399Z,16.72
2023-05-10T12:58:35.528Z,16.86
2023-05-10T13:01:09.002Z,17.01
2023-05-10T13:03:42.027Z,17.20
2023-05-10T13:06:16.268Z,17.36
2023-05-10T13:08:45.276Z,17.48
2023-05-10T13:11:18.169Z,17.41
2023-05-10T13:13:50.177Z,17.24
2023-05-10T13:16:24.143Z,17.17
2023-05-10T13:18:55.453Z,16.61
2023-05-10T13:21:29.542Z,16.28
2023-05-10T13:24:03.618Z,15.97
2023-05-10T13:26:36.999Z,15.83
2023-05-10T13:29:09.208Z,15.65
2023-05-10T13:31:45.343Z,15.77
2023-05-10T13:34:20.330Z,15.64
2023-05-10T13:36:53.369Z,15.82
2023-05-10T13:39:27.302Z,16.00
2023-05-10T13:42:00.012Z,16.11
2023-05-10T13:44:33.719Z,16.09
2023-05-10T13:47:09.594Z,15.98
2023-05-10T13:49:43.078Z,16.13
2023-05-10T13:52:16.473Z,15.85
2023-05-10T13:54:50.771Z,15.76
2023-05-10T13:57:24.118Z,15.76
2023-05-10T13:59:57.767Z,15.50
2023-05-10T14:02:34.498Z,15.70
2023-05-10T14:05:09.517Z,15.55
2023-05-10T14:07:43.933Z,15.39
2023-05-10T14:10:17.734Z,15.38
2023-05-10T14:12:51.541Z,15.20
2023-05-10T14:15:25.568Z,15.08
2023-05-10T14:18:02.510Z,15.25
2023-05-10T14:20:36.449Z,15.28
2023-05-10T14:23:11.734Z,15.53
2023-05-10T14:25:46.170Z,15.82
2023-05-10T14:28:15.561Z,15.98
2023-05-10T14:30:46.338Z,15.91
2023-05-10T14:33:23.005Z,15.45
2023-05-10T14:35:53.298Z,15.43
2023-05-10T14:38:24.630Z,15.40
2023-05-10T14:40:57.884Z,15.90
2023-05-10T14:43:31.549Z,16.10
2023-05-10T14:46:05.617Z,16.34
2023-05-10T14:48:36.296Z,16.53
2023-05-10T14:51:07.532Z,16.75
2023-05-10T14:53:36.021Z,16.95
2023-05-10T14:56:04.873Z,17.01
2023-05-10T14:58:35.489Z,17.02
2023-05-10T15:01:05.578Z,17.07
2023-05-10T15:03:38.558Z,16.36
2023-05-10T15:06:15.957Z,16.03
2023-05-10T15:08:46.537Z,16.02
2023-05-10T15:16:11.848Z,16.17
2023-05-10T15:18:40.375Z,16.31
2023-05-10T15:21:12.288Z,16.30
2023-05-10T15:23:42.906Z,16.32
2023-05-10T15:26:14.262Z,16.15
2023-05-10T15:28:44.107Z,16.44
2023-05-10T15:31:12.309Z,16.56
2023-05-10T15:33:43.075Z,16.51
2023-05-10T15:36:14.093Z,16.64
2023-05-10T15:38:46.290Z,16.49
2023-05-10T15:41:15.683Z,16.51
2023-05-10T15:43:44.116Z,16.55
2023-05-10T15:46:14.316Z,16.58
2023-05-10T15:48:43.539Z,16.64
2023-05-10T15:51:12.427Z,16.73
2023-05-10T15:53:56.463Z,16.63
2023-05-10T15:56:29.448Z,16.37
2023-05-10T15:58:59.438Z,16.32
2023-05-10T16:01:28.753Z,16.32
2023-05-10T16:03:57.033Z,16.28
2023-05-10T16:06:25.218Z,16.24
2023-05-10T16:08:58.334Z,16.00
2023-05-10T16:11:27.799Z,15.78
2023-05-10T16:13:59.282Z,15.70
2023-05-10T16:16:29.299Z,15.65
2023-05-10T16:18:58.233Z,15.89
2023-05-10T16:21:28.512Z,15.88
2023-05-10T16:24:01.075Z,15.79
2023-05-10T16:26:29.230Z,16.04
2023-05-10T16:29:00.460Z,15.89
2023-05-10T16:31:30.080Z,15.86
2023-05-10T16:34:02.061Z,15.93
2023-05-10T16:36:36.103Z,15.96
2023-05-10T16:39:05.983Z,15.58
2023-05-10T16:41:36.869Z,15.51
2023-05-10T16:44:05.499Z,15.35
2023-05-10T16:46:39.447Z,15.15
2023-05-10T16:49:09.691Z,14.88
2023-05-10T16:51:43.088Z,14.92
2023-05-10T16:54:16.227Z,14.89
2023-05-10T16:56:46.416Z,14.92
2023-05-10T16:59:17.514Z,14.99
2023-05-10T17:01:50.359Z,15.00
2023-05-10T17:04:20.892Z,14.93
2023-05-10T17:06:53.040Z,14.72
2023-05-10T17:09:27.001Z,14.59
2023-05-10T17:11:59.144Z,14.66
2023-05-10T17:14:31.572Z,14.79
2023-05-10T17:17:01.339Z,14.58
2023-05-10T17:19:33.200Z,14.59
2023-05-10T17:22:06.444Z,14.64
2023-05-10T17:24:42.625Z,14.80
2023-05-10T17:27:15.278Z,14.77
2023-05-10T17:29:47.705Z,14.95
2023-05-10T17:32:17.063Z,14.72
2023-05-10T17:34:48.812Z,14.78
2023-05-10T17:37:20.525Z,14.93
2023-05-10T17:39:55.249Z,14.67
2023-05-10T17:42:25.040Z,14.72
2023-05-10T17:44:53.633Z,14.55
2023-05-10T17:47:24.554Z,14.33
2023-05-10T17:49:57.757Z,14.25
2023-05-10T17:52:32.156Z,14.05
2023-05-10T17:55:06.947Z,13.71
2023-05-10T17:57:38.120Z,13.65
2023-05-10T18:00:10.647Z,13.48
2023-05-10T18:02:44.340Z,13.32
2023-05-10T18:05:24.564Z,13.49
2023-05-10T18:07:56.485Z,13.36
2023-05-10T18:10:31.162Z,13.55
2023-05-10T18:12:59.587Z,13.54
2023-05-10T18:15:32.691Z,13.52
2023-05-10T18:18:03.034Z,13.68
2023-05-10T18:20:35.493Z,13.47
2023-05-10T18:23:05.100Z,13.32
2023-05-10T18:25:34.654Z,13.14
2023-05-10T18:28:03.978Z,13.06
2023-05-10T18:30:37.065Z,12.94
2023-05-10T18:33:10.349Z,13.04
2023-05-10T18:35:43.795Z,13.00
2023-05-10T18:38:17.101Z,12.99
2023-05-10T18:40:53.526Z,13.06
2023-05-10T18:43:22.758Z,13.21
2023-05-10T18:45:51.280Z,13.21
2023-05-10T18:48:22.393Z,13.14
2023-05-10T18:50:54.587Z,13.19
2023-05-10T18:53:28.154Z,13.14
2023-05-10T18:56:00.707Z,13.20
2023-05-10T18:58:33.203Z,13.18
2023-05-10T19:01:06.831Z,12.90
2023-05-10T19:03:39.235Z,12.97
2023-05-10T19:06:12.060Z,12.85
2023-05-10T19:08:42.354Z,12.76
2023-05-10T19:11:12.827Z,12.67
2023-05-10T19:13:42.703Z,12.54
2023-05-10T19:16:16.522Z,12.51
2023-05-10T19:18:45.868Z,12.39
2023-05-10T19:21:16.245Z,12.26
2023-05-10T19:23:49.947Z,12.33
2023-05-10T19:26:21.218Z,12.22
2023-05-10T19:28:55.444Z,12.24
2023-05-10T19:31:25.248Z,12.24
2023-05-10T19:34:00.748Z,12.24
2023-05-10T19:36:36.189Z,12.13
2023-05-10T19:39:07.313Z,12.06
2023-05-10T19:41:42.900Z,11.89
2023-05-10T19:44:16.339Z,11.86
2023-05-10T19:46:46.596Z,11.72
2023-05-10T19:49:16.792Z,11.75
2023-05-10T19:51:49.221Z,11.61
2023-05-10T19:54:21.890Z,11.43
2023-05-10T19:56:51.849Z,11.54
2023-05-10T19:59:21.473Z,11.47
2023-05-10T20:01:54.793Z,11.39
2023-05-10T20:04:29.681Z,11.20
2023-05-10T20:07:02.663Z,11.16
2023-05-10T20:09:33.876Z,11.02
2023-05-10T20:12:07.299Z,11.04
2023-05-10T20:14:35.984Z,11.01
2023-05-10T20:17:08.259Z,10.94
2023-05-10T20:19:39.738Z,10.82
2023-05-10T20:22:10.576Z,10.76
2023-05-10T20:24:38.677Z,10.78
2023-05-10T20:27:10.991Z,10.71
2023-05-10T20:29:41.218Z,10.70
2023-05-10T20:32:10.969Z,10.60
2023-05-10T20:34:40.942Z,10.54
2023-05-10T20:37:11.159Z,10.49
2023-05-10T20:39:40.357Z,10.45
2023-05-10T20:42:10.193Z,10.37
2023-05-10T20:44:40.638Z,10.44
2023-05-10T20:47:10.253Z,10.44
2023-05-10T20:49:41.713Z,10.46
2023-05-10T20:52:11.530Z,10.45
2023-05-10T20:54:39.614Z,10.46
2023-05-10T20:57:14.316Z,10.53
2023-05-10T20:59:45.621Z,10.53
2023-05-10T21:02:16.452Z,10.53
2023-05-10T21:04:46.432Z,10.60
2023-05-10T21:07:15.849Z,10.65
2023-05-10T21:09:44.713Z,10.65
2023-05-10T21:12:15.596Z,10.73
2023-05-10T21:14:47.067Z,10.71
2023-05-10T21:17:19.453Z,10.76
2023-05-10T21:19:49.419Z,10.70
2023-05-10T21:22:21.362Z,10.69
2023-05-10T21:24:49.771Z,10.80
2023-05-10T21:27:19.294Z,10.83
2023-05-10T21:29:47.618Z,10.74
2023-05-10T21:32:16.322Z,10.86
2023-05-10T21:34:44.472Z,10.72
2023-05-10T21:37:12.548Z,10.75
2023-05-10T21:39:44.014Z,10.66
2023-05-10T21:42:13.388Z,10.70
2023-05-10T21:44:45.582Z,10.67
2023-05-10T21:47:14.254Z,10.72
2023-05-10T21:49:43.336Z,10.72
2023-05-10T21:52:11.646Z,10.69
2023-05-10T21:54:39.862Z,10.58
2023-05-10T21:57:07.953Z,10.58
2023-05-10T21:59:36.893Z,10.63
2023-05-10T22:02:07.142Z,10.61
2023-05-10T22:04:35.222Z,10.64
2023-05-10T22:07:03.377Z,10.61
2023-05-10T22:09:32.414Z,10.54
2023-05-10T22:12:00.873Z,10.57
2023-05-10T22:14:29.899Z,10.50
2023-05-10T22:16:59.030Z,10.50
2023-05-10T22:19:28.688Z,10.55
2023-05-10T22:21:59.746Z,10.50
2023-05-10T22:24:28.888Z,10.39
2023-05-10T22:26:57.633Z,10.44
2023-05-10T22:29:26.210Z,10.41
2023-05-10T22:31:54.775Z,10.45
2023-05-10T22:34:23.550Z,10.49
2023-05-10T22:36:54.038Z,10.48
2023-05-10T22:39:24.913Z,10.47
2023-05-10T22:41:53.779Z,10.43
2023-05-10T22:44:23.927Z,10.44
2023-05-10T22:46:53.998Z,10.42
2023-05-10T22:49:22.445Z,10.41
2023-05-10T22:51:51.062Z,10.42
2023-05-10T22:54:21.515Z,10.44
2023-05-10T22:56:50.914Z,10.45
2023-05-10T22:59:19.164Z,10.37
2023-05-10T23:01:49.014Z,10.45
2023-05-10T23:04:19.916Z,10.43
2023-05-10T23:06:49.375Z,10.44
2023-05-10T23:09:18.479Z,10.43
2023-05-10T23:11:48.895Z,10.49
2023-05-10T23:14:18.140Z,10.35
2023-05-10T23:16:46.281Z,10.48
2023-05-10T23:19:15.119Z,10.50
2023-05-10T23:21:43.528Z,10.48
2023-05-10T23:24:11.791Z,10.52
2023-05-10T23:26:40.053Z,10.49
2023-05-10T23:29:10.628Z,10.43
2023-05-10T23:31:40.835Z,10.41
2023-05-10T23:34:09.534Z,10.46
2023-05-10T23:36:37.734Z,10.40
2023-05-10T23:39:07.073Z,10.46
2023-05-10T23:41:35.401Z,10.45
2023-05-10T23:44:03.469Z,10.42
2023-05-10T23:46:33.094Z,10.49
2023-05-10T23:49:01.358Z,10.48
2023-05-10T23:51:29.609Z,10.46
2023-05-10T23:53:57.574Z,10.50
2023-05-10T23:56:25.665Z,10.55
2023-05-10T23:58:53.903Z,10.56
